• Join FlightAware (Why Join?)
  • Login
  • US Flag 
03:55AM EDT


 

Airport Tracker/Info


-or-


 

Live Flight TrackerFlight Track Log ✈ CSQ405 ✈ 08-Nov-2013 ✈ MDSD / SDQ - TJSJ / SJU

Flight Track Log - Related Links

Times and Time Zones

All times are in EST time to prevent confusion due to time zone crossing. See the CSQ405 flight status page for this flight to view local times or setup timezone preferences in your user account.

Time Position Orientation Groundspeed Altitude Reporting Facility
EST Latitude Longitude Course Direction KTS MPH feet Rate Location/Type
06:53PM 18.2833 -68.9333 99° East 240 276 15,000  Level San Juan Center
06:54PM 18.2833 -68.8667 90° East 250 288 15,000  Level San Juan Center
06:55PM 18.2667 -68.7833 102° East 260 299 15,000  Level San Juan Center
06:56PM 18.2667 -68.7167 90° East 260 299 15,000  Level San Juan Center
06:57PM 18.2500 -68.6333 102° East 260 299 15,000  Level San Juan Center
06:58PM 18.4400 -68.5628 99° East  Level Estimated
06:58PM 18.2500 -68.5667 90° East 260 299 15,000  Level San Juan Center
06:59PM 18.2333 -68.4833 102° East 260 299 15,000  Level San Juan Center
07:00PM 18.2333 -68.4000 90° East 260 299 15,000  Level San Juan Center
07:01PM 18.2167 -68.3500 109° East 270 311 15,000  Level San Juan Center
07:02PM 18.2167 -68.2500 90° East 260 299 15,000  Level San Juan Center
07:03PM 18.2167 -68.1667 90° East 280 322 15,000  Level San Juan Center
07:04PM 18.2000 -68.1000 105° East 260 299 15,000  Level San Juan Center
07:05PM 18.2000 -68.0167 90° East 270 311 15,000  Level San Juan Center
07:06PM 18.1833 -67.9500 105° East 260 299 15,000  Level San Juan Center
07:07PM 18.1833 -67.8667 90° East 260 299 15,000  Level San Juan Center
07:08PM 18.2000 -67.7833 78° East 260 299 15,000  Level San Juan Center
07:09PM 18.2000 -67.7167 90° East 260 299 15,000  Level San Juan Center
07:10PM 18.2000 -67.6333 90° East 270 311 15,000  Level San Juan Center
07:11PM 18.2000 -67.5500 90° East 260 299 15,000  Level San Juan Center
07:12PM 18.2000 -67.4833 90° East 270 311 15,000  Level San Juan Center
07:13PM 18.2000 -67.4000 90° East 260 299 15,000  Level San Juan Center
07:14PM 18.2000 -67.3167 90° East 260 299 15,000  Level San Juan Center
07:15PM 18.2000 -67.2500 90° East 260 299 15,000  Level San Juan Center
07:16PM 18.2167 -67.1667 78° East 270 311 15,000  Level San Juan Center
07:17PM 18.2167 -67.1000 90° East 260 299 15,000  Level San Juan Center
07:18PM 18.2167 -67.0167 90° East 270 311 15,000  Level San Juan Center
07:19PM 18.2167 -66.9333 90° East 270 311 15,100 -480 Climbing San Juan Center
07:20PM 18.2167 -66.8500 90° East 300 345 14,100 -780 Descending San Juan Center
07:21PM 18.2333 -66.7500 80° East 300 345 13,600 -480 Descending San Juan Center
07:22PM 18.2333 -66.6667 90° East 280 322 13,200 -480 Descending San Juan Center
07:23PM 18.2333 -66.5833 90° East 290 334 12,700 -540 Descending San Juan Center
07:24PM 18.2333 -66.5000 90° East 280 322 12,200 -480 Descending San Juan Center
07:25PM 18.2500 -66.4333 75° East 280 322 11,800 -600 Descending San Juan Center
07:26PM 18.3000 -66.3500 58° Northeast 290 334 11,000 -1,620 Descending San Juan Center
07:27PM 18.3500 -66.2833 52° Northeast 280 322 8,600 -2,700 Descending San Juan Center
07:28PM 18.4000 -66.2333 43° Northeast 270 311 5,700 -2,640 Descending San Juan Center
07:29PM 18.4167 -66.1667 75° East 250 288 3,400 -1,500 Descending San Juan Center
07:30PM 18.4333 -66.1000 75° East 180 207 2,700 -1,020 Descending San Juan Center
07:31PM 18.4333 -66.0667 90° East 130 150 1,400 -1,140 Descending San Juan Center
07:32PM 18.4333 -66.0333 90° East 140 161 500 -900 Descending San Juan Center